Time;durP1;ratioP1;P1;durP2;ratioP2;P2;SDS_P1;SDS_P2;PMS_P1;PMS_P2;Temp;Humidity;BMP_temperature;BMP_pressure;BME280_temperature;BME280_humidity;BME280_pressure;Samples;Min_cycle;Max_cycle;Signal;HPM_P1;HPM_P2
2023/05/17 00:00:10;;;;;;;6.38;3.60;;;12.50;99.90;;;;;;5015540;28;20481;-74
2023/05/17 00:02:36;;;;;;;6.22;4.03;;;12.50;99.90;;;;;;5024018;28;20037;-75
2023/05/17 00:05:03;;;;;;;4.20;3.83;;;12.50;99.90;;;;;;5016604;28;20037;-74
2023/05/17 00:07:29;;;;;;;6.05;3.80;;;12.50;99.90;;;;;;5032377;28;20038;-74
2023/05/17 00:09:55;;;;;;;6.68;4.00;;;12.50;99.90;;;;;;5033660;28;20052;-74
2023/05/17 00:12:22;;;;;;;7.18;3.85;;;12.50;99.90;;;;;;5033858;28;20029;-74
2023/05/17 00:14:48;;;;;;;9.13;3.85;;;12.50;99.90;;;;;;5016930;28;20117;-74
2023/05/17 00:17:14;;;;;;;5.53;4.10;;;12.50;99.90;;;;;;5032751;28;20041;-75
2023/05/17 00:19:40;;;;;;;9.43;3.95;;;12.60;99.90;;;;;;5016348;28;20467;-74
2023/05/17 00:22:06;;;;;;;4.47;3.90;;;12.60;99.90;;;;;;5016216;28;20021;-74
2023/05/17 00:24:32;;;;;;;6.18;4.15;;;12.70;99.90;;;;;;5034156;28;20405;-74
2023/05/17 00:26:58;;;;;;;5.85;3.72;;;12.80;99.90;;;;;;5033158;28;20029;-75
2023/05/17 00:29:25;;;;;;;9.48;4.38;;;12.80;99.90;;;;;;5015533;28;20501;-74
2023/05/17 00:31:51;;;;;;;4.10;3.60;;;12.60;99.90;;;;;;5013884;28;20102;-75
2023/05/17 00:34:17;;;;;;;5.57;3.97;;;12.50;99.90;;;;;;5032659;28;20546;-74
2023/05/17 00:36:43;;;;;;;8.40;3.97;;;12.60;99.90;;;;;;5032946;28;20033;-74
2023/05/17 00:39:09;;;;;;;7.72;3.88;;;12.50;99.90;;;;;;5015199;28;20037;-75
2023/05/17 00:41:35;;;;;;;5.45;3.80;;;12.50;99.90;;;;;;5015083;28;20122;-74
2023/05/17 00:44:01;;;;;;;4.68;3.78;;;12.40;99.90;;;;;;5034102;28;20044;-74
2023/05/17 00:46:27;;;;;;;5.45;3.50;;;12.30;99.90;;;;;;5015156;28;20057;-74
2023/05/17 00:48:53;;;;;;;5.47;3.95;;;12.10;99.90;;;;;;5031767;28;20045;-74
2023/05/17 00:51:19;;;;;;;6.55;4.10;;;12.00;99.90;;;;;;5006855;28;20030;-75
2023/05/17 00:53:46;;;;;;;4.22;3.83;;;11.90;99.90;;;;;;5010702;28;20049;-74
2023/05/17 00:56:12;;;;;;;6.47;4.00;;;12.00;99.90;;;;;;5012138;28;20202;-74
2023/05/17 00:58:39;;;;;;;5.78;4.10;;;12.10;99.90;;;;;;5009267;28;20060;-74
2023/05/17 01:01:05;;;;;;;4.95;3.80;;;12.10;99.90;;;;;;5009038;28;20034;-74
2023/05/17 01:03:32;;;;;;;6.82;4.03;;;11.90;99.90;;;;;;5032533;28;20037;-74
2023/05/17 01:05:58;;;;;;;6.82;3.78;;;11.90;99.90;;;;;;4995442;28;20033;-75
2023/05/17 01:08:24;;;;;;;6.50;4.00;;;11.90;99.90;;;;;;4997892;28;20402;-75
2023/05/17 01:11:02;;;;;;;5.70;3.80;;;11.90;99.90;;;;;;5033405;28;20037;-74
2023/05/17 01:13:39;;;;;;;6.88;4.05;;;12.00;99.90;;;;;;5008184;28;20050;-74
2023/05/17 01:16:29;;;;;;;5.50;3.90;;;12.10;99.90;;;;;;4999002;28;20490;-75
2023/05/17 01:19:29;;;;;;;8.18;3.63;;;12.20;99.90;;;;;;5013121;28;20486;-75
2023/05/17 01:21:59;;;;;;;5.32;3.83;;;12.20;99.90;;;;;;5028641;28;20022;-75
2023/05/17 01:24:29;;;;;;;6.10;3.77;;;12.10;99.90;;;;;;5013663;28;20052;-75
2023/05/17 01:26:55;;;;;;;5.30;3.40;;;12.20;99.90;;;;;;5014520;28;20041;-75
2023/05/17 01:29:24;;;;;;;5.47;3.40;;;12.30;99.90;;;;;;5014104;28;20025;-75
2023/05/17 01:31:50;;;;;;;5.38;3.50;;;12.30;99.90;;;;;;5031830;28;20041;-75
2023/05/17 01:34:26;;;;;;;5.13;3.40;;;12.30;99.90;;;;;;4987976;28;20415;-75
2023/05/17 01:36:52;;;;;;;6.28;3.42;;;12.10;99.90;;;;;;5027324;28;20045;-75
2023/05/17 01:39:19;;;;;;;7.60;3.67;;;12.30;99.90;;;;;;5031529;28;20040;-75
2023/05/17 01:42:26;;;;;;;5.57;3.65;;;12.40;99.90;;;;;;5031788;28;20034;-75
2023/05/17 01:44:52;;;;;;;6.03;3.63;;;12.40;99.90;;;;;;5030625;28;20060;-75
2023/05/17 01:47:23;;;;;;;10.80;4.40;;;12.40;99.90;;;;;;5012806;28;20486;-75
2023/05/17 01:49:51;;;;;;;5.88;3.70;;;12.40;99.90;;;;;;4992178;28;20040;-75
2023/05/17 01:52:24;;;;;;;6.50;3.75;;;12.50;99.90;;;;;;4991007;28;20034;-75
2023/05/17 01:54:55;;;;;;;7.57;3.60;;;12.50;99.90;;;;;;4995510;28;20038;-75
2023/05/17 01:57:24;;;;;;;5.32;3.97;;;12.50;99.90;;;;;;5005203;28;20022;-75
2023/05/17 01:59:50;;;;;;;7.38;4.00;;;12.60;99.90;;;;;;4997561;28;20362;-75
2023/05/17 02:02:17;;;;;;;4.88;4.00;;;12.60;99.90;;;;;;5023720;28;20236;-75
2023/05/17 02:04:43;;;;;;;6.97;3.90;;;12.50;99.90;;;;;;4983044;28;20026;-75
2023/05/17 02:07:09;;;;;;;6.82;3.92;;;12.50;99.90;;;;;;5023197;28;20029;-75
2023/05/17 02:09:35;;;;;;;8.77;4.13;;;12.60;99.90;;;;;;5027987;28;20056;-75
2023/05/17 02:12:01;;;;;;;7.32;3.92;;;12.60;99.90;;;;;;5029648;28;20045;-75
2023/05/17 02:14:27;;;;;;;7.05;3.42;;;12.60;99.90;;;;;;5016423;28;20049;-75
2023/05/17 02:16:53;;;;;;;5.60;3.35;;;12.60;99.90;;;;;;5018999;28;20037;-75
2023/05/17 02:19:19;;;;;;;5.45;3.60;;;12.50;99.90;;;;;;5029275;28;20040;-75
2023/05/17 02:21:45;;;;;;;7.72;3.95;;;12.50;99.90;;;;;;5023355;28;20034;-75
2023/05/17 02:24:11;;;;;;;6.95;3.72;;;12.60;99.90;;;;;;5030449;28;20036;-75
2023/05/17 02:26:41;;;;;;;7.20;3.75;;;12.40;99.90;;;;;;5030643;28;20493;-75
2023/05/17 02:29:09;;;;;;;7.78;3.85;;;12.50;99.90;;;;;;5029249;28;20505;-75
2023/05/17 02:31:35;;;;;;;8.05;3.88;;;12.40;99.90;;;;;;5029002;28;20041;-75
2023/05/17 02:34:02;;;;;;;8.18;4.03;;;12.50;99.90;;;;;;4996324;28;20483;-75
2023/05/17 02:36:28;;;;;;;6.50;3.67;;;12.50;99.90;;;;;;5006643;28;20053;-75
2023/05/17 02:38:54;;;;;;;5.40;3.75;;;12.50;99.90;;;;;;5028825;28;20037;-75
2023/05/17 02:41:20;;;;;;;6.60;4.00;;;12.50;99.90;;;;;;5013532;28;20052;-75
2023/05/17 02:43:46;;;;;;;6.88;4.18;;;12.60;99.90;;;;;;5031583;28;20863;-75
2023/05/17 02:46:12;;;;;;;9.88;3.95;;;12.50;99.90;;;;;;5031337;28;20048;-75
2023/05/17 02:48:38;;;;;;;8.45;3.60;;;12.40;99.90;;;;;;5030642;28;20474;-75
2023/05/17 02:51:04;;;;;;;4.10;3.45;;;12.30;99.90;;;;;;5030280;28;20029;-75
2023/05/17 02:53:30;;;;;;;7.78;3.80;;;12.30;99.90;;;;;;5031099;28;20045;-75
2023/05/17 02:55:57;;;;;;;6.82;3.97;;;12.20;99.90;;;;;;5029850;28;20042;-74
2023/05/17 02:58:23;;;;;;;7.22;3.95;;;12.00;99.90;;;;;;5029786;28;20034;-75
2023/05/17 03:00:50;;;;;;;6.03;3.40;;;12.00;99.90;;;;;;5029414;28;20038;-75
2023/05/17 03:03:16;;;;;;;8.60;4.20;;;12.00;99.90;;;;;;5002299;28;20033;-75
2023/05/17 03:05:42;;;;;;;6.93;3.70;;;12.00;99.90;;;;;;5026446;28;20390;-75
2023/05/17 03:08:08;;;;;;;7.13;4.28;;;11.90;99.90;;;;;;5033189;28;20041;-75
2023/05/17 03:10:34;;;;;;;7.45;3.88;;;11.80;99.90;;;;;;5000536;28;20774;-75
2023/05/17 03:13:00;;;;;;;5.57;3.90;;;11.80;99.90;;;;;;5015425;28;20029;-75
2023/05/17 03:15:28;;;;;;;5.43;3.70;;;11.80;99.90;;;;;;5034506;28;20045;-75
2023/05/17 03:17:55;;;;;;;9.18;3.70;;;11.70;99.90;;;;;;5017388;28;20026;-75
2023/05/17 03:20:22;;;;;;;5.20;3.67;;;11.70;99.90;;;;;;5001673;28;20025;-75
2023/05/17 03:22:48;;;;;;;10.40;3.67;;;11.60;99.90;;;;;;5034273;28;20512;-75
2023/05/17 03:25:14;;;;;;;8.77;3.60;;;11.60;99.90;;;;;;5035004;28;20033;-75
2023/05/17 03:27:40;;;;;;;15.02;9.25;;;11.50;99.90;;;;;;5035049;28;20041;-75
2023/05/17 03:30:07;;;;;;;99.88;50.25;;;11.50;99.90;;;;;;5016347;28;20037;-75
2023/05/17 03:32:33;;;;;;;84.78;46.03;;;11.40;99.90;;;;;;5003598;28;20627;-75
2023/05/17 03:34:59;;;;;;;58.03;35.75;;;11.40;99.90;;;;;;5011874;28;20033;-75
2023/05/17 03:37:25;;;;;;;62.50;36.47;;;11.40;99.90;;;;;;5026749;28;20402;-75
2023/05/17 03:39:51;;;;;;;24.23;12.90;;;11.30;99.90;;;;;;5029610;28;20403;-75
2023/05/17 03:42:17;;;;;;;43.88;25.60;;;11.20;99.90;;;;;;5015133;28;20057;-75
2023/05/17 03:44:43;;;;;;;43.13;26.45;;;11.20;99.90;;;;;;5028774;28;20470;-74
2023/05/17 03:47:09;;;;;;;61.97;32.88;;;11.30;99.90;;;;;;5025400;28;20050;-74
2023/05/17 03:49:35;;;;;;;162.77;78.80;;;11.40;99.90;;;;;;5032782;28;20036;-75
2023/05/17 03:52:02;;;;;;;101.53;41.80;;;11.50;99.90;;;;;;5022504;28;20486;-75
2023/05/17 03:54:28;;;;;;;21.77;10.18;;;11.50;99.90;;;;;;5016181;28;20037;-75
2023/05/17 03:56:54;;;;;;;26.00;10.90;;;11.40;99.90;;;;;;5032828;28;20030;-75
2023/05/17 03:59:20;;;;;;;15.77;6.35;;;11.30;99.90;;;;;;5032587;28;20029;-75
2023/05/17 04:01:46;;;;;;;10.85;5.72;;;11.20;99.90;;;;;;5032851;28;20044;-75
2023/05/17 04:04:12;;;;;;;6.57;4.28;;;11.20;99.90;;;;;;5016118;28;20077;-75
2023/05/17 04:06:39;;;;;;;7.65;4.20;;;11.30;99.90;;;;;;5033477;28;20438;-75
2023/05/17 04:09:07;;;;;;;6.45;4.00;;;11.30;99.90;;;;;;4983186;28;20045;-75
2023/05/17 04:11:33;;;;;;;4.65;3.60;;;11.10;99.90;;;;;;5032369;28;20064;-74
2023/05/17 04:13:59;;;;;;;7.35;3.88;;;11.10;99.90;;;;;;5016146;28;20037;-75
2023/05/17 04:16:25;;;;;;;6.35;3.67;;;11.00;99.90;;;;;;5022867;28;20395;-75
2023/05/17 04:18:52;;;;;;;7.28;3.65;;;10.80;99.90;;;;;;5023957;28;20030;-75
2023/05/17 04:21:18;;;;;;;8.57;3.95;;;10.70;99.90;;;;;;5032345;28;20052;-76
2023/05/17 04:23:44;;;;;;;6.05;3.88;;;10.70;99.90;;;;;;5014858;28;20038;-75
2023/05/17 04:26:10;;;;;;;7.15;3.85;;;10.70;99.90;;;;;;4999348;28;20030;-75
2023/05/17 04:28:36;;;;;;;9.02;4.10;;;10.90;99.90;;;;;;5032679;28;20033;-75
2023/05/17 04:31:06;;;;;;;10.20;3.55;;;11.00;99.90;;;;;;5032738;28;20025;-75
2023/05/17 04:33:32;;;;;;;7.43;4.00;;;10.90;99.90;;;;;;5015789;28;20040;-75
2023/05/17 04:35:58;;;;;;;9.10;3.92;;;10.80;99.90;;;;;;5015056;28;20512;-75
2023/05/17 04:38:24;;;;;;;6.35;3.97;;;10.90;99.90;;;;;;5032503;28;20028;-75
2023/05/17 04:40:50;;;;;;;9.25;3.65;;;10.90;99.90;;;;;;5015145;28;20037;-75
2023/05/17 04:43:16;;;;;;;9.43;3.70;;;10.90;99.90;;;;;;5033419;28;20025;-75
2023/05/17 04:48:00;;;;;;;6.90;3.67;;;10.90;99.90;;;;;;5069670;28;20390;-76
2023/05/17 04:50:26;;;;;;;6.05;3.95;;;11.00;99.90;;;;;;5052617;28;20048;-75
2023/05/17 04:52:52;;;;;;;10.88;3.88;;;11.10;99.90;;;;;;5049504;28;20041;-75
2023/05/17 04:55:18;;;;;;;9.00;4.35;;;11.20;99.90;;;;;;5049539;28;20033;-75
2023/05/17 04:57:44;;;;;;;7.55;4.03;;;11.30;99.90;;;;;;5048133;28;20040;-75
2023/05/17 05:00:11;;;;;;;7.95;4.03;;;11.30;99.90;;;;;;5045652;28;20041;-75
2023/05/17 05:02:37;;;;;;;6.65;3.72;;;11.40;99.90;;;;;;5016243;28;20022;-75
2023/05/17 05:05:04;;;;;;;8.13;3.97;;;11.30;99.90;;;;;;5008368;28;20042;-75
2023/05/17 05:07:30;;;;;;;9.15;4.35;;;11.30;99.90;;;;;;5043551;28;20049;-75
2023/05/17 05:09:56;;;;;;;7.45;3.83;;;11.10;99.90;;;;;;5028740;28;20041;-75
2023/05/17 05:12:23;;;;;;;6.90;3.90;;;11.00;99.90;;;;;;5029111;28;20049;-76
2023/05/17 05:14:49;;;;;;;4.97;3.40;;;11.00;99.90;;;;;;5028008;28;20037;-76
2023/05/17 05:17:15;;;;;;;10.07;4.90;;;11.10;99.90;;;;;;5027585;28;20042;-75
2023/05/17 05:19:41;;;;;;;7.00;3.92;;;11.10;99.90;;;;;;5027367;28;20041;-75
2023/05/17 05:22:07;;;;;;;6.53;3.97;;;11.10;99.90;;;;;;5028260;28;20038;-75
2023/05/17 05:24:33;;;;;;;5.75;3.75;;;11.20;99.90;;;;;;5028954;28;20029;-75
2023/05/17 05:27:00;;;;;;;5.53;3.78;;;11.40;99.90;;;;;;5027429;28;20045;-76
2023/05/17 05:29:26;;;;;;;6.13;4.10;;;11.50;99.90;;;;;;5027714;28;20033;-76
2023/05/17 05:31:52;;;;;;;7.47;4.45;;;11.60;99.90;;;;;;5027115;28;20631;-76
2023/05/17 05:34:18;;;;;;;8.05;4.75;;;11.80;99.90;;;;;;5028507;28;20022;-76
2023/05/17 05:36:44;;;;;;;7.00;4.68;;;12.10;99.90;;;;;;5044004;28;20037;-75
2023/05/17 05:39:11;;;;;;;8.27;4.47;;;12.20;99.90;;;;;;5026939;28;20058;-76
2023/05/17 05:41:37;;;;;;;6.55;4.47;;;12.20;99.90;;;;;;5028550;28;20037;-76
2023/05/17 05:44:03;;;;;;;11.55;4.80;;;12.20;99.90;;;;;;5028426;28;20038;-76
2023/05/17 05:46:29;;;;;;;5.95;4.68;;;12.20;99.90;;;;;;5027389;28;20057;-76
2023/05/17 05:48:55;;;;;;;7.90;4.65;;;12.30;99.90;;;;;;5035246;28;20037;-76
2023/05/17 05:51:21;;;;;;;9.30;4.80;;;12.60;99.90;;;;;;5026616;28;20068;-76
2023/05/17 05:53:48;;;;;;;9.23;4.97;;;12.60;99.90;;;;;;5025363;28;20505;-76
2023/05/17 05:56:14;;;;;;;7.30;4.70;;;12.70;99.90;;;;;;5025604;28;20049;-76
2023/05/17 05:58:40;;;;;;;11.70;5.28;;;12.70;99.90;;;;;;5019217;28;20026;-76
2023/05/17 06:01:06;;;;;;;8.90;6.00;;;12.90;99.90;;;;;;5014025;28;20041;-76
2023/05/17 06:03:32;;;;;;;6.63;5.53;;;13.20;99.90;;;;;;5029736;28;20423;-76
2023/05/17 06:05:58;;;;;;;9.30;5.50;;;13.40;99.90;;;;;;5012774;28;20090;-77
2023/05/17 06:08:24;;;;;;;8.07;5.40;;;13.60;99.90;;;;;;5012451;28;20478;-76
2023/05/17 06:10:50;;;;;;;8.23;5.30;;;13.70;99.90;;;;;;5019861;28;20026;-77
2023/05/17 06:13:17;;;;;;;8.15;5.18;;;13.70;99.90;;;;;;5008022;28;20049;-76
2023/05/17 06:15:43;;;;;;;7.32;5.60;;;13.60;99.90;;;;;;5006425;28;20514;-76
2023/05/17 06:18:09;;;;;;;8.63;5.30;;;13.60;99.90;;;;;;5002871;28;20033;-76
2023/05/17 06:20:35;;;;;;;8.18;5.35;;;13.50;99.90;;;;;;5014328;28;20037;-76
2023/05/17 06:23:03;;;;;;;7.60;4.90;;;13.60;99.90;;;;;;5013138;28;20049;-76
2023/05/17 06:25:29;;;;;;;6.72;4.90;;;13.50;99.90;;;;;;5015352;28;20518;-75
2023/05/17 06:27:55;;;;;;;9.85;4.93;;;13.60;99.90;;;;;;5014487;28;20038;-76
2023/05/17 06:30:22;;;;;;;8.35;4.72;;;13.60;99.90;;;;;;5013923;28;20034;-76
2023/05/17 06:32:48;;;;;;;9.13;5.18;;;13.70;99.90;;;;;;5029307;28;20030;-75
2023/05/17 06:35:14;;;;;;;8.52;4.75;;;13.40;99.90;;;;;;5013055;28;20038;-76
2023/05/17 06:37:40;;;;;;;7.00;4.70;;;13.20;99.90;;;;;;5029734;28;20030;-76
2023/05/17 06:40:07;;;;;;;6.25;4.38;;;13.40;99.90;;;;;;5014400;28;20073;-76
2023/05/17 06:42:33;;;;;;;10.38;5.10;;;13.50;99.90;;;;;;4995675;28;20053;-77
2023/05/17 06:44:59;;;;;;;7.20;5.05;;;13.60;99.90;;;;;;5011391;28;20459;-77
2023/05/17 06:47:25;;;;;;;10.52;5.18;;;13.70;99.90;;;;;;5018684;28;20053;-76
2023/05/17 06:49:52;;;;;;;6.68;5.50;;;13.90;99.90;;;;;;5021349;28;20041;-76
2023/05/17 06:52:18;;;;;;;6.15;5.32;;;13.90;99.90;;;;;;5013892;28;20398;-70
2023/05/17 06:54:44;;;;;;;7.55;5.15;;;14.10;99.90;;;;;;5011095;28;20025;-73
2023/05/17 06:57:10;;;;;;;7.30;5.00;;;14.30;99.90;;;;;;5013757;28;20386;-73
2023/05/17 06:59:36;;;;;;;11.52;4.90;;;14.40;99.90;;;;;;5014108;28;20032;-71
2023/05/17 07:02:02;;;;;;;11.90;5.20;;;14.60;99.90;;;;;;5019125;28;20037;-72
2023/05/17 07:04:28;;;;;;;8.05;4.93;;;14.80;99.90;;;;;;5011910;28;20030;-71
2023/05/17 07:06:54;;;;;;;10.88;4.82;;;14.80;99.90;;;;;;5011948;28;20053;-69
2023/05/17 07:09:20;;;;;;;12.02;5.20;;;14.90;99.90;;;;;;5000494;28;20038;-70
2023/05/17 07:11:47;;;;;;;9.70;4.10;;;14.90;99.90;;;;;;5006040;28;20751;-71
2023/05/17 07:14:13;;;;;;;11.68;4.82;;;14.90;99.90;;;;;;5010026;28;20034;-70
2023/05/17 07:16:39;;;;;;;10.15;4.70;;;14.90;99.90;;;;;;5009654;28;20042;-69
2023/05/17 07:19:05;;;;;;;8.45;4.32;;;14.90;99.90;;;;;;5012789;28;20038;-70
2023/05/17 07:21:32;;;;;;;7.32;4.40;;;15.10;99.90;;;;;;5013350;28;20038;-69
2023/05/17 07:23:58;;;;;;;8.80;4.88;;;15.20;99.90;;;;;;5009233;28;20041;-70
2023/05/17 07:26:24;;;;;;;8.32;4.72;;;15.30;99.90;;;;;;5012842;28;20031;-68
2023/05/17 07:28:50;;;;;;;8.15;5.00;;;15.50;99.90;;;;;;5004189;28;20038;-68
2023/05/17 07:31:16;;;;;;;8.25;4.93;;;15.70;99.90;;;;;;5008498;28;20030;-69
2023/05/17 07:33:43;;;;;;;7.90;4.43;;;15.80;99.90;;;;;;5013370;28;20034;-69
2023/05/17 07:36:09;;;;;;;7.28;4.70;;;15.90;99.90;;;;;;5008829;28;20026;-65
2023/05/17 07:38:35;;;;;;;7.35;4.75;;;15.90;99.90;;;;;;5011357;28;20399;-71
2023/05/17 07:41:02;;;;;;;7.75;4.90;;;15.80;99.90;;;;;;5011365;28;20037;-71
2023/05/17 07:43:28;;;;;;;6.93;4.70;;;16.10;99.90;;;;;;5027986;28;20026;-69
2023/05/17 07:45:54;;;;;;;7.57;4.95;;;16.10;99.90;;;;;;5008978;28;20076;-72
2023/05/17 07:48:20;;;;;;;6.28;4.55;;;16.30;99.90;;;;;;5010031;28;20049;-76
2023/05/17 07:50:48;;;;;;;7.35;5.03;;;16.40;99.90;;;;;;5006309;28;20030;-70
2023/05/17 07:53:14;;;;;;;7.57;4.63;;;16.60;99.90;;;;;;5041588;28;20057;-72
2023/05/17 07:55:40;;;;;;;11.90;5.07;;;16.70;99.90;;;;;;5010789;28;20482;-70
2023/05/17 07:58:09;;;;;;;8.35;4.70;;;16.80;99.90;;;;;;4996629;28;20031;-70
2023/05/17 08:00:35;;;;;;;7.28;5.03;;;16.80;99.90;;;;;;5010088;28;20038;-70
2023/05/17 08:03:01;;;;;;;9.30;4.78;;;16.90;99.90;;;;;;5012177;28;20030;-71
2023/05/17 08:05:27;;;;;;;6.13;4.70;;;17.00;99.90;;;;;;5012048;28;20038;-68
2023/05/17 08:07:54;;;;;;;9.98;5.03;;;17.00;99.90;;;;;;5012165;28;20034;-71
2023/05/17 08:10:21;;;;;;;6.40;5.80;;;17.20;99.90;;;;;;5011827;28;20026;-72
2023/05/17 08:12:47;;;;;;;5.40;4.90;;;17.00;99.90;;;;;;5012486;28;20033;-72
2023/05/17 08:15:13;;;;;;;13.13;4.80;;;16.90;99.90;;;;;;5010745;28;20037;-71
2023/05/17 08:17:39;;;;;;;8.18;4.70;;;17.00;99.90;;;;;;5027507;28;20026;-72
2023/05/17 08:20:06;;;;;;;6.53;5.70;;;17.10;99.90;;;;;;5012782;28;20033;-72
2023/05/17 08:22:32;;;;;;;8.00;5.68;;;16.90;99.90;;;;;;5010600;28;20529;-72
2023/05/17 08:24:58;;;;;;;5.93;5.10;;;16.80;99.90;;;;;;5010616;28;20045;-72
2023/05/17 08:27:25;;;;;;;7.75;5.55;;;16.80;99.90;;;;;;5011063;28;20088;-72
2023/05/17 08:29:53;;;;;;;6.50;5.13;;;16.80;99.90;;;;;;5011296;28;20026;-72
2023/05/17 08:32:20;;;;;;;10.80;5.57;;;16.80;99.90;;;;;;5010465;28;20041;-72
2023/05/17 08:34:46;;;;;;;9.73;5.68;;;16.90;99.90;;;;;;5012049;28;20049;-72
2023/05/17 08:37:12;;;;;;;7.95;5.43;;;17.10;99.90;;;;;;5012127;28;20038;-72
2023/05/17 08:39:38;;;;;;;6.53;5.80;;;17.30;99.90;;;;;;5010428;28;20030;-72
2023/05/17 08:42:08;;;;;;;8.30;6.05;;;17.40;99.90;;;;;;5010128;28;20042;-72
2023/05/17 08:44:35;;;;;;;7.95;6.20;;;17.50;99.90;;;;;;5026159;28;20022;-72
2023/05/17 08:47:02;;;;;;;7.45;6.70;;;17.60;99.90;;;;;;5012511;28;20048;-72
2023/05/17 08:49:30;;;;;;;6.82;6.20;;;17.80;99.90;;;;;;5032068;28;20881;-72
2023/05/17 08:51:58;;;;;;;6.50;5.80;;;17.70;99.90;;;;;;5012367;28;20351;-72
2023/05/17 08:54:27;;;;;;;8.93;6.80;;;17.60;99.90;;;;;;4992044;28;20056;-73
2023/05/17 08:56:55;;;;;;;10.45;6.13;;;17.70;99.90;;;;;;5011049;28;20046;-72
2023/05/17 08:59:21;;;;;;;7.80;6.30;;;17.70;99.90;;;;;;5010938;28;20034;-72
2023/05/17 09:01:50;;;;;;;13.32;6.60;;;17.80;99.90;;;;;;5008799;28;20038;-72
2023/05/17 09:04:16;;;;;;;7.03;6.38;;;17.90;99.90;;;;;;5010137;28;20026;-72
2023/05/17 09:06:43;;;;;;;7.70;6.55;;;18.20;99.90;;;;;;5008340;28;20046;-72
2023/05/17 09:09:09;;;;;;;9.32;6.50;;;18.20;99.90;;;;;;5009241;28;20050;-69
2023/05/17 09:11:35;;;;;;;7.80;7.00;;;18.30;99.90;;;;;;5011284;28;20029;-69
2023/05/17 09:14:03;;;;;;;9.93;6.75;;;18.20;99.90;;;;;;5012180;28;20387;-71
2023/05/17 09:16:30;;;;;;;8.90;7.03;;;18.20;99.90;;;;;;5006977;28;20030;-71
2023/05/17 09:18:56;;;;;;;7.30;6.55;;;18.20;99.90;;;;;;5008799;28;20030;-73
2023/05/17 09:21:23;;;;;;;9.55;6.80;;;18.10;99.90;;;;;;5008977;28;20049;-72
2023/05/17 09:23:53;;;;;;;9.27;6.53;;;18.30;99.90;;;;;;4994113;28;20026;-69
2023/05/17 09:26:19;;;;;;;11.00;7.00;;;18.40;99.90;;;;;;5013101;28;20033;-71
2023/05/17 09:28:47;;;;;;;7.28;6.57;;;18.50;99.90;;;;;;4994425;28;20049;-73
2023/05/17 09:31:15;;;;;;;7.97;7.22;;;18.40;99.90;;;;;;5009088;28;20037;-74
2023/05/17 09:33:45;;;;;;;8.23;7.50;;;18.40;99.90;;;;;;5011740;28;20026;-71
2023/05/17 09:36:16;;;;;;;11.52;7.32;;;18.40;99.90;;;;;;5013484;28;20522;-72
2023/05/17 09:38:42;;;;;;;;;;;18.60;99.90;;;;;;5030522;28;20054;-72
2023/05/17 09:41:08;;;;;;;8.40;7.65;;;18.80;99.90;;;;;;5013827;28;19914;-72
2023/05/17 09:43:34;;;;;;;8.93;7.75;;;18.90;99.90;;;;;;5015472;28;20026;-66
2023/05/17 09:46:00;;;;;;;9.45;6.60;;;18.90;99.90;;;;;;5007483;28;20065;-72
2023/05/17 09:48:26;;;;;;;12.05;7.20;;;18.80;99.90;;;;;;5026046;28;20049;-71
2023/05/17 09:50:53;;;;;;;7.75;6.75;;;18.90;99.90;;;;;;5012101;28;20042;-70
2023/05/17 09:53:25;;;;;;;10.38;7.53;;;19.10;99.90;;;;;;5011590;28;20064;-70
2023/05/17 09:56:04;;;;;;;9.75;6.40;;;19.10;99.90;;;;;;5010241;28;20049;-70
2023/05/17 09:58:35;;;;;;;7.20;6.50;;;19.10;99.90;;;;;;5016915;28;20026;-72
2023/05/17 10:01:05;;;;;;;7.47;6.38;;;18.80;99.90;;;;;;5001885;28;20037;-72
2023/05/17 10:03:32;;;;;;;10.93;7.70;;;18.90;99.90;;;;;;5014864;28;20406;-71
2023/05/17 10:06:01;;;;;;;10.05;7.82;;;19.20;99.90;;;;;;5014228;28;20049;-71
2023/05/17 10:08:27;;;;;;;7.97;7.38;;;19.20;99.90;;;;;;5009577;28;20499;-71
2023/05/17 10:10:55;;;;;;;8.40;7.35;;;19.10;99.90;;;;;;5010825;28;20037;-70
2023/05/17 10:13:23;;;;;;;7.47;6.78;;;19.10;99.90;;;;;;5015081;28;20026;-71
2023/05/17 10:15:50;;;;;;;7.93;7.00;;;19.10;99.90;;;;;;5027876;28;20038;-71
2023/05/17 10:18:16;;;;;;;7.18;6.50;;;18.90;99.90;;;;;;5005486;28;20034;-71
2023/05/17 10:20:42;;;;;;;7.75;6.80;;;18.90;99.90;;;;;;5014346;28;20025;-71
2023/05/17 10:23:10;;;;;;;9.98;7.90;;;19.10;99.90;;;;;;5013722;28;20048;-70
2023/05/17 10:25:37;;;;;;;8.75;6.68;;;19.20;99.90;;;;;;5012300;28;20030;-71
2023/05/17 10:28:05;;;;;;;8.95;8.07;;;19.30;99.90;;;;;;5010833;28;20390;-70
2023/05/17 10:30:31;;;;;;;11.43;7.85;;;19.20;99.90;;;;;;5012908;28;20049;-71
2023/05/17 10:32:58;;;;;;;10.25;7.15;;;19.10;99.90;;;;;;5004784;28;20038;-70
2023/05/17 10:35:24;;;;;;;11.05;8.48;;;18.80;99.90;;;;;;5012759;28;20502;-71
2023/05/17 10:37:50;;;;;;;10.20;9.00;;;19.00;99.90;;;;;;5018599;28;20051;-71
2023/05/17 10:40:16;;;;;;;10.98;9.82;;;19.20;99.70;;;;;;5006052;28;20041;-72
2023/05/17 10:42:52;;;;;;;10.57;9.50;;;19.40;99.50;;;;;;5029617;28;20021;-70
2023/05/17 10:45:24;;;;;;;11.32;10.00;;;19.50;99.80;;;;;;5008840;28;20035;-71
2023/05/17 10:47:51;;;;;;;12.68;9.52;;;19.50;99.90;;;;;;5021685;28;20513;-72
2023/05/17 10:50:21;;;;;;;11.40;10.52;;;19.70;99.90;;;;;;5019480;28;20041;-72
2023/05/17 10:52:48;;;;;;;9.65;8.75;;;19.60;99.90;;;;;;5010203;28;20038;-71
2023/05/17 10:55:41;;;;;;;9.60;8.80;;;19.50;99.90;;;;;;5007938;28;20053;-71
2023/05/17 10:58:18;;;;;;;9.98;8.90;;;19.60;99.50;;;;;;5005611;28;20042;-70
2023/05/17 11:00:46;;;;;;;10.30;9.30;;;19.50;98.30;;;;;;5011532;28;20041;-71
2023/05/17 11:03:19;;;;;;;9.68;8.88;;;19.60;98.80;;;;;;5008469;28;20043;-71
2023/05/17 11:06:11;;;;;;;9.77;8.98;;;19.70;97.70;;;;;;5006354;28;20026;-70
2023/05/17 11:08:47;;;;;;;9.65;8.75;;;19.80;97.40;;;;;;5007718;28;20045;-70
2023/05/17 11:11:16;;;;;;;9.23;8.20;;;20.00;97.50;;;;;;5012302;28;20045;-70
2023/05/17 11:13:54;;;;;;;10.00;9.00;;;20.10;97.80;;;;;;5012376;28;20513;-70
2023/05/17 11:16:22;;;;;;;9.57;8.68;;;20.10;98.10;;;;;;5011163;28;20034;-72
2023/05/17 11:18:49;;;;;;;10.95;8.95;;;20.10;97.30;;;;;;5012911;28;20045;-71
2023/05/17 11:21:15;;;;;;;10.18;9.18;;;20.10;97.80;;;;;;5012168;28;20364;-73
2023/05/17 11:23:45;;;;;;;9.88;9.07;;;19.80;97.30;;;;;;5011585;28;20034;-73
2023/05/17 11:26:17;;;;;;;9.63;8.85;;;19.80;97.10;;;;;;5009845;28;20034;-72
2023/05/17 11:28:43;;;;;;;9.98;9.07;;;19.80;96.20;;;;;;5010960;28;20045;-73
2023/05/17 11:31:10;;;;;;;11.00;9.70;;;19.80;95.70;;;;;;5010760;28;20384;-73
2023/05/17 11:33:43;;;;;;;10.13;9.32;;;20.00;95.80;;;;;;5012880;28;20037;-67
2023/05/17 11:36:27;;;;;;;10.48;9.32;;;19.80;94.70;;;;;;5010792;28;20042;-75
2023/05/17 11:39:12;;;;;;;9.88;8.88;;;19.70;94.20;;;;;;5012317;28;20034;-74
2023/05/17 11:41:40;;;;;;;9.82;9.00;;;19.90;94.20;;;;;;5009765;28;20486;-74
2023/05/17 11:44:08;;;;;;;9.93;9.23;;;20.00;93.50;;;;;;5010486;28;20403;-75
2023/05/17 11:46:34;;;;;;;11.43;9.90;;;20.00;93.60;;;;;;5024584;28;20049;-74
2023/05/17 11:49:00;;;;;;;10.30;9.40;;;20.10;94.00;;;;;;5025016;28;20377;-74
2023/05/17 11:51:27;;;;;;;10.20;9.20;;;20.30;93.80;;;;;;5003420;28;20029;-74
2023/05/17 11:53:54;;;;;;;10.55;9.82;;;20.20;93.00;;;;;;5015328;28;20049;-75
2023/05/17 11:56:20;;;;;;;10.77;10.07;;;20.10;93.70;;;;;;5008654;28;20025;-74
2023/05/17 11:58:49;;;;;;;11.27;10.38;;;20.10;93.80;;;;;;5009260;28;20030;-74
2023/05/17 12:01:15;;;;;;;10.25;9.52;;;20.20;94.20;;;;;;5000512;28;20034;-74
2023/05/17 12:03:41;;;;;;;9.55;8.88;;;20.30;93.30;;;;;;5011533;28;20390;-74
2023/05/17 12:06:14;;;;;;;10.57;9.52;;;19.90;93.60;;;;;;4999598;28;20030;-73
2023/05/17 12:08:44;;;;;;;10.30;9.23;;;19.80;94.30;;;;;;5007383;28;20039;-74
2023/05/17 12:11:12;;;;;;;10.10;9.30;;;19.90;94.00;;;;;;5009810;28;20022;-73
2023/05/17 12:13:41;;;;;;;9.77;8.98;;;19.90;94.00;;;;;;4999056;28;20057;-73
2023/05/17 12:16:12;;;;;;;9.93;9.02;;;19.90;93.60;;;;;;5024895;28;20402;-74
2023/05/17 12:18:42;;;;;;;10.65;9.50;;;19.90;93.70;;;;;;4994563;28;20378;-74
2023/05/17 12:21:09;;;;;;;11.48;10.25;;;19.60;93.90;;;;;;5003032;28;20026;-74
2023/05/17 12:23:40;;;;;;;11.70;10.80;;;19.60;94.80;;;;;;5003119;28;20034;-74
2023/05/17 12:26:06;;;;;;;;;;;19.90;94.30;;;;;;5012326;28;20394;-73
2023/05/17 12:28:33;;;;;;;11.07;10.13;;;20.00;93.70;;;;;;5010049;28;21211;-74
2023/05/17 12:31:02;;;;;;;9.35;8.63;;;20.20;94.10;;;;;;5010982;28;20067;-74
2023/05/17 12:33:30;;;;;;;10.10;9.25;;;20.30;93.10;;;;;;5011176;28;20034;-74
2023/05/17 12:35:56;;;;;;;10.68;9.80;;;20.00;92.20;;;;;;5011338;28;20391;-74
2023/05/17 12:38:22;;;;;;;9.15;8.55;;;20.10;93.80;;;;;;5026071;28;20029;-74
2023/05/17 12:40:48;;;;;;;10.55;9.80;;;20.30;91.70;;;;;;5007920;28;20371;-74
2023/05/17 12:43:14;;;;;;;10.30;9.38;;;20.10;92.20;;;;;;5011172;28;20042;-74
2023/05/17 12:45:41;;;;;;;10.07;9.38;;;19.90;91.60;;;;;;5008852;28;20390;-74